Time;durP1;ratioP1;P1;durP2;ratioP2;P2;SDS_P1;SDS_P2;PMS_P1;PMS_P2;Temp;Humidity;BMP_temperature;BMP_pressure;BME280_temperature;BME280_humidity;BME280_pressure;Samples;Min_cycle;Max_cycle;Signal;HPM_P1;HPM_P2
2023/05/01 00:01:19;;;;;;;6.20;5.47;;;8.90;99.90;;;;;;5068982;28;20036;-34
2023/05/01 00:03:45;;;;;;;6.72;5.55;;;8.80;99.90;;;;;;5068905;28;20064;-34
2023/05/01 00:06:11;;;;;;;6.47;5.38;;;8.80;99.90;;;;;;5054639;28;20028;-34
2023/05/01 00:08:37;;;;;;;9.70;6.15;;;8.80;99.90;;;;;;5073089;28;20029;-34
2023/05/01 00:11:03;;;;;;;6.13;5.30;;;8.70;99.90;;;;;;5072798;28;20032;-34
2023/05/01 00:13:30;;;;;;;9.85;5.68;;;8.70;99.90;;;;;;5077062;28;20036;-34
2023/05/01 00:15:56;;;;;;;8.50;6.03;;;8.60;99.90;;;;;;5072479;28;20036;-33
2023/05/01 00:18:22;;;;;;;8.43;5.63;;;8.60;99.90;;;;;;5056185;28;20178;-34
2023/05/01 00:20:48;;;;;;;7.00;6.05;;;;;;;;;;5072547;28;20466;-34
2023/05/01 00:23:14;;;;;;;9.50;5.53;;;8.50;99.90;;;;;;5072398;28;20044;-34
2023/05/01 00:25:39;;;;;;;7.03;5.28;;;8.50;99.90;;;;;;5073214;28;20033;-34
2023/05/01 00:28:05;;;;;;;8.40;5.80;;;8.40;99.90;;;;;;5072416;28;20442;-34
2023/05/01 00:30:32;;;;;;;8.68;6.13;;;8.50;99.90;;;;;;5056076;28;20115;-34
2023/05/01 00:32:58;;;;;;;7.30;5.05;;;8.40;99.90;;;;;;5072276;28;20072;-34
2023/05/01 00:35:24;;;;;;;8.93;5.30;;;8.40;99.90;;;;;;5068872;28;20469;-34
2023/05/01 00:37:50;;;;;;;8.02;5.38;;;8.40;99.90;;;;;;5072486;28;20071;-34
2023/05/01 00:40:16;;;;;;;9.95;5.68;;;8.40;99.90;;;;;;5072114;28;20033;-34
2023/05/01 00:42:42;;;;;;;10.18;6.07;;;;;;;;;;5072232;28;20115;-34
2023/05/01 00:45:09;;;;;;;8.05;4.97;;;;;;;;;;5072250;28;20040;-34
2023/05/01 00:47:36;;;;;;;7.93;5.85;;;;;;;;;;5072381;28;20116;-34
2023/05/01 00:50:02;;;;;;;9.68;5.95;;;8.30;99.90;;;;;;5072528;28;20570;-34
2023/05/01 00:52:28;;;;;;;7.47;5.55;;;8.30;99.90;;;;;;5072119;28;20051;-34
2023/05/01 00:54:54;;;;;;;7.10;5.32;;;8.20;99.90;;;;;;5071714;28;20405;-33
2023/05/01 00:57:20;;;;;;;8.00;5.60;;;8.20;99.90;;;;;;5072050;28;20120;-34
2023/05/01 00:59:47;;;;;;;8.23;5.75;;;8.10;99.90;;;;;;5071531;28;20079;-34
2023/05/01 01:02:14;;;;;;;8.05;5.35;;;8.10;99.90;;;;;;5071679;28;20036;-34
2023/05/01 01:04:46;;;;;;;6.70;5.38;;;8.10;99.90;;;;;;5071466;28;20090;-34
2023/05/01 01:07:20;;;;;;;10.07;5.72;;;8.00;99.90;;;;;;5068988;28;20532;-34
2023/05/01 01:09:52;;;;;;;9.43;6.07;;;8.00;99.90;;;;;;5071524;28;20032;-34
2023/05/01 01:12:44;;;;;;;7.68;5.78;;;8.00;99.90;;;;;;5068891;28;20493;-34
2023/05/01 01:15:17;;;;;;;7.70;5.68;;;7.90;99.90;;;;;;5039285;28;20048;-34
2023/05/01 01:17:47;;;;;;;7.30;5.68;;;7.80;99.90;;;;;;5066674;28;20033;-33
2023/05/01 01:20:20;;;;;;;7.60;5.93;;;7.80;99.90;;;;;;5071848;28;20028;-34
2023/05/01 01:22:57;;;;;;;7.57;5.30;;;7.80;99.90;;;;;;5069995;28;20033;-34
2023/05/01 01:26:00;;;;;;;7.82;5.30;;;7.70;99.90;;;;;;5071787;28;20039;-34
2023/05/01 01:29:04;;;;;;;7.43;5.57;;;7.70;99.90;;;;;;5069996;28;20029;-34
2023/05/01 01:31:44;;;;;;;6.50;5.27;;;7.60;99.90;;;;;;5048391;28;20193;-34
2023/05/01 01:34:48;;;;;;;7.35;5.63;;;7.60;99.90;;;;;;5071048;28;20378;-34
2023/05/01 01:37:22;;;;;;;6.90;5.75;;;7.60;99.90;;;;;;5001666;28;20352;-34
2023/05/01 01:40:03;;;;;;;7.95;5.15;;;7.60;99.90;;;;;;4995608;28;20162;-34
2023/05/01 01:42:54;;;;;;;8.57;6.22;;;7.40;99.90;;;;;;5039188;28;20040;-34
2023/05/01 01:45:26;;;;;;;6.25;4.97;;;7.40;99.90;;;;;;5061861;28;20096;-34
2023/05/01 01:47:53;;;;;;;8.32;5.35;;;7.40;99.90;;;;;;5071233;28;20037;-34
2023/05/01 01:50:22;;;;;;;7.20;5.63;;;7.40;99.90;;;;;;5070936;28;20087;-34
2023/05/01 01:52:50;;;;;;;10.55;5.97;;;7.40;99.90;;;;;;5068231;28;20044;-34
2023/05/01 01:55:20;;;;;;;7.53;5.93;;;7.30;99.90;;;;;;5070903;28;20072;-34
2023/05/01 01:57:47;;;;;;;9.15;5.55;;;7.30;99.90;;;;;;5064382;28;20393;-34
2023/05/01 02:00:15;;;;;;;7.13;5.57;;;7.30;99.90;;;;;;5071053;28;20048;-33
2023/05/01 02:02:42;;;;;;;8.02;5.25;;;7.30;99.90;;;;;;5054095;28;20032;-34
2023/05/01 02:05:12;;;;;;;7.97;5.70;;;7.20;99.90;;;;;;5065824;28;20083;-34
2023/05/01 02:07:40;;;;;;;8.30;5.47;;;7.20;99.90;;;;;;5068336;28;20036;-33
2023/05/01 02:10:08;;;;;;;7.32;5.78;;;7.20;99.90;;;;;;5067210;28;20445;-34
2023/05/01 02:12:35;;;;;;;8.02;5.63;;;7.00;99.90;;;;;;5070243;28;20513;-34
2023/05/01 02:15:02;;;;;;;8.23;5.97;;;7.10;99.90;;;;;;5063535;28;20431;-34
2023/05/01 02:17:28;;;;;;;8.98;5.70;;;7.10;99.90;;;;;;5070357;28;20352;-34
2023/05/01 02:19:56;;;;;;;8.82;6.05;;;7.00;99.90;;;;;;5070052;28;20032;-34
2023/05/01 02:22:24;;;;;;;8.40;5.40;;;7.10;99.90;;;;;;5070713;28;20036;-34
2023/05/01 02:24:52;;;;;;;8.25;6.30;;;7.10;99.90;;;;;;5070004;28;20509;-34
2023/05/01 02:27:33;;;;;;;9.68;5.28;;;7.00;99.90;;;;;;5070516;28;20039;-34
2023/05/01 02:29:59;;;;;;;8.57;5.57;;;7.00;99.90;;;;;;5069161;28;20039;-34
2023/05/01 02:32:25;;;;;;;8.32;5.60;;;7.00;99.90;;;;;;5070242;28;20032;-34
2023/05/01 02:34:51;;;;;;;7.22;5.68;;;6.90;99.90;;;;;;5053853;28;20227;-34
2023/05/01 02:37:17;;;;;;;7.25;5.68;;;6.90;99.90;;;;;;5074007;28;20040;-34
2023/05/01 02:39:42;;;;;;;6.78;5.93;;;6.90;99.90;;;;;;5070123;28;20040;-34
2023/05/01 02:42:10;;;;;;;8.55;5.70;;;7.00;99.90;;;;;;5066983;28;20115;-34
2023/05/01 02:44:40;;;;;;;9.95;6.75;;;6.90;99.90;;;;;;5064616;28;20037;-34
2023/05/01 02:47:09;;;;;;;7.72;5.57;;;7.00;99.90;;;;;;5069823;28;20036;-34
2023/05/01 02:49:37;;;;;;;6.80;5.18;;;6.90;99.90;;;;;;5069548;28;20033;-34
2023/05/01 02:52:03;;;;;;;8.63;5.53;;;6.90;99.90;;;;;;5069429;28;20460;-34
2023/05/01 02:54:30;;;;;;;9.68;5.85;;;6.80;99.90;;;;;;5069651;28;20036;-34
2023/05/01 02:56:58;;;;;;;7.53;5.32;;;6.70;99.90;;;;;;5070282;28;20075;-34
2023/05/01 02:59:24;;;;;;;8.82;5.40;;;6.80;99.90;;;;;;5069706;28;20040;-34
2023/05/01 03:01:50;;;;;;;8.02;5.70;;;6.70;99.90;;;;;;5069743;28;20044;-34
2023/05/01 03:04:16;;;;;;;8.13;5.68;;;6.80;99.90;;;;;;5068818;28;20043;-34
2023/05/01 03:06:43;;;;;;;8.05;6.20;;;6.70;99.90;;;;;;5053832;28;20032;-34
2023/05/01 03:09:09;;;;;;;8.52;5.38;;;6.70;99.90;;;;;;5069669;28;20489;-34
2023/05/01 03:11:34;;;;;;;7.95;6.13;;;6.70;99.90;;;;;;5071144;28;20037;-33
2023/05/01 03:14:00;;;;;;;8.88;5.85;;;6.70;99.90;;;;;;5069154;28;20486;-33
2023/05/01 03:16:27;;;;;;;11.05;5.93;;;6.70;99.90;;;;;;5070155;28;20044;-30
2023/05/01 03:18:53;;;;;;;7.68;5.80;;;6.60;99.90;;;;;;5054337;28;20478;-31
2023/05/01 03:21:19;;;;;;;9.73;5.75;;;6.60;99.90;;;;;;5070516;28;20098;-31
2023/05/01 03:23:45;;;;;;;8.82;5.85;;;6.70;99.90;;;;;;5070577;28;20076;-31
2023/05/01 03:26:11;;;;;;;8.57;6.35;;;6.60;99.90;;;;;;5053369;28;20052;-31
2023/05/01 03:28:37;;;;;;;9.70;6.43;;;6.70;99.90;;;;;;5070738;28;20032;-31
2023/05/01 03:31:03;;;;;;;8.43;6.35;;;6.60;99.90;;;;;;5070177;28;20041;-31
2023/05/01 03:33:29;;;;;;;11.02;6.15;;;6.60;99.90;;;;;;5070354;28;20174;-31
2023/05/01 03:36:02;;;;;;;10.52;5.95;;;6.70;99.90;;;;;;5070512;28;20032;-31
2023/05/01 03:38:29;;;;;;;9.13;6.20;;;6.60;99.90;;;;;;5070386;28;20040;-31
2023/05/01 03:40:56;;;;;;;8.90;6.45;;;6.60;99.90;;;;;;5072661;28;20521;-31
2023/05/01 03:43:23;;;;;;;10.23;6.40;;;6.60;99.90;;;;;;5074674;28;20040;-31
2023/05/01 03:45:50;;;;;;;9.85;6.53;;;6.60;99.90;;;;;;5071991;28;20047;-31
2023/05/01 03:48:16;;;;;;;10.35;6.55;;;6.60;99.90;;;;;;5062976;28;20037;-31
2023/05/01 03:50:42;;;;;;;8.60;6.18;;;6.60;99.90;;;;;;5073548;28;20127;-31
2023/05/01 03:53:08;;;;;;;9.43;6.35;;;6.60;99.90;;;;;;5061385;28;20111;-31
2023/05/01 03:55:33;;;;;;;11.98;6.45;;;6.60;99.90;;;;;;5075044;28;20041;-30
2023/05/01 03:57:59;;;;;;;11.95;6.93;;;6.60;99.90;;;;;;5074154;28;20448;-31
2023/05/01 04:00:25;;;;;;;9.77;6.95;;;6.60;99.90;;;;;;5074977;28;20060;-31
2023/05/01 04:02:56;;;;;;;11.13;7.10;;;6.60;99.90;;;;;;5057872;28;20051;-33
2023/05/01 04:05:22;;;;;;;8.52;6.72;;;6.60;99.90;;;;;;5056761;28;20119;-33
2023/05/01 04:07:47;;;;;;;10.43;7.05;;;6.70;99.90;;;;;;5073544;28;20112;-32
2023/05/01 04:10:13;;;;;;;9.27;6.47;;;6.70;99.90;;;;;;5080222;28;20098;-32
2023/05/01 04:12:39;;;;;;;9.30;6.03;;;6.60;99.90;;;;;;5077577;28;20480;-32
2023/05/01 04:15:07;;;;;;;10.05;6.50;;;6.60;99.90;;;;;;5073805;28;20052;-32
2023/05/01 04:17:35;;;;;;;8.00;5.95;;;6.60;99.90;;;;;;5073595;28;20494;-32
2023/05/01 04:20:03;;;;;;;10.23;6.53;;;6.70;99.90;;;;;;5065551;28;20040;-32
2023/05/01 04:22:29;;;;;;;10.98;6.50;;;6.70;99.90;;;;;;5073943;28;20443;-32
2023/05/01 04:24:55;;;;;;;9.75;6.53;;;6.70;99.90;;;;;;5073851;28;20047;-32
2023/05/01 04:27:21;;;;;;;10.43;7.15;;;6.80;99.90;;;;;;5078913;28;20035;-32
2023/05/01 04:29:47;;;;;;;8.75;7.18;;;6.80;99.90;;;;;;5079261;28;20033;-32
2023/05/01 04:32:13;;;;;;;11.05;6.80;;;6.80;99.90;;;;;;5076974;28;20040;-33
2023/05/01 04:34:39;;;;;;;11.30;6.70;;;6.90;99.90;;;;;;5075161;28;20213;-32
2023/05/01 04:37:07;;;;;;;9.32;6.95;;;6.90;99.90;;;;;;5049908;28;20406;-31
2023/05/01 04:39:34;;;;;;;9.65;6.35;;;6.80;99.90;;;;;;5073270;28;20040;-32
2023/05/01 04:42:04;;;;;;;8.80;6.65;;;6.90;99.90;;;;;;5073207;28;20453;-32
2023/05/01 04:44:32;;;;;;;10.15;6.55;;;7.00;99.90;;;;;;5072750;28;20033;-32
2023/05/01 04:47:01;;;;;;;9.10;6.53;;;6.90;99.90;;;;;;5073482;28;20513;-32
2023/05/01 04:49:27;;;;;;;9.98;6.40;;;7.00;99.90;;;;;;5073405;28;20036;-31
2023/05/01 04:51:53;;;;;;;9.15;6.80;;;7.10;99.90;;;;;;5077411;28;20482;-32
2023/05/01 04:54:18;;;;;;;7.80;6.55;;;7.10;99.90;;;;;;5071746;28;20101;-32
2023/05/01 04:56:45;;;;;;;10.80;7.35;;;7.10;99.90;;;;;;5048199;28;20036;-33
2023/05/01 04:59:10;;;;;;;10.07;6.70;;;7.20;99.90;;;;;;5072759;28;20072;-33
2023/05/01 05:01:36;;;;;;;8.68;6.72;;;7.20;99.90;;;;;;5069998;28;20068;-32
2023/05/01 05:04:10;;;;;;;10.05;7.43;;;7.30;99.90;;;;;;5079809;28;20041;-34
2023/05/01 05:06:42;;;;;;;10.65;7.18;;;7.40;99.90;;;;;;5057627;28;20107;-31
2023/05/01 05:09:08;;;;;;;8.85;7.03;;;7.40;99.90;;;;;;5072960;28;20076;-30
2023/05/01 05:11:33;;;;;;;13.18;6.93;;;7.50;99.90;;;;;;5072950;28;20043;-31
2023/05/01 05:13:59;;;;;;;10.82;6.85;;;7.50;99.90;;;;;;5072954;28;20078;-30
2023/05/01 05:16:25;;;;;;;11.27;7.25;;;7.60;99.90;;;;;;5072672;28;20457;-31
2023/05/01 05:18:51;;;;;;;10.70;6.97;;;7.60;99.90;;;;;;5072861;28;20087;-31
2023/05/01 05:21:16;;;;;;;18.27;7.32;;;7.70;99.90;;;;;;5072458;28;20076;-31
2023/05/01 05:23:42;;;;;;;12.68;7.63;;;7.80;99.90;;;;;;5073086;28;20055;-31
2023/05/01 05:26:08;;;;;;;9.57;7.55;;;7.80;99.90;;;;;;5072353;28;20036;-31
2023/05/01 05:28:34;;;;;;;12.85;6.90;;;7.90;99.90;;;;;;5072221;28;20039;-31
2023/05/01 05:31:00;;;;;;;9.35;7.53;;;8.00;99.90;;;;;;5072583;28;20032;-30
2023/05/01 05:33:27;;;;;;;11.27;7.03;;;8.00;99.90;;;;;;5072528;28;20397;-30
2023/05/01 05:35:53;;;;;;;10.80;6.75;;;8.00;99.90;;;;;;5072532;28;20182;-31
2023/05/01 05:38:19;;;;;;;12.23;8.23;;;8.10;99.90;;;;;;5072579;28;20075;-31
2023/05/01 05:40:45;;;;;;;9.82;7.35;;;8.20;99.90;;;;;;5072374;28;20040;-30
2023/05/01 05:43:10;;;;;;;11.00;7.10;;;8.40;99.90;;;;;;5063278;28;20033;-30
2023/05/01 05:45:37;;;;;;;13.55;7.50;;;8.40;99.90;;;;;;5055594;28;20045;-30
2023/05/01 05:48:03;;;;;;;8.40;7.20;;;8.50;99.90;;;;;;5070725;28;20085;-30
2023/05/01 05:50:28;;;;;;;10.40;7.55;;;8.60;99.90;;;;;;5052425;28;20044;-31
2023/05/01 05:52:55;;;;;;;10.70;7.32;;;8.70;99.90;;;;;;5061602;28;20044;-31
2023/05/01 05:55:21;;;;;;;11.32;7.55;;;8.80;99.90;;;;;;5071653;28;20044;-30
2023/05/01 05:57:47;;;;;;;10.23;7.20;;;8.80;99.90;;;;;;5072455;28;20044;-30
2023/05/01 06:00:14;;;;;;;9.95;6.85;;;8.90;99.90;;;;;;5072332;28;20494;-31
2023/05/01 06:02:40;;;;;;;10.93;7.93;;;9.10;99.90;;;;;;5071608;28;20063;-30
2023/05/01 06:05:06;;;;;;;11.00;7.30;;;9.10;99.90;;;;;;5071707;28;20068;-31
2023/05/01 06:07:32;;;;;;;8.40;6.53;;;9.10;99.90;;;;;;5071815;28;20037;-31
2023/05/01 06:10:03;;;;;;;10.02;7.28;;;9.20;99.90;;;;;;5071773;28;20111;-31
2023/05/01 06:12:28;;;;;;;11.07;7.38;;;9.30;99.90;;;;;;5055543;28;20032;-31
2023/05/01 06:14:54;;;;;;;10.15;7.28;;;9.30;99.90;;;;;;5071672;28;20036;-31
2023/05/01 06:17:20;;;;;;;10.23;7.05;;;9.50;99.90;;;;;;5054897;28;20044;-31
2023/05/01 06:19:46;;;;;;;10.65;7.32;;;9.60;99.90;;;;;;5071381;28;20041;-31
2023/05/01 06:22:12;;;;;;;11.88;7.63;;;9.60;99.90;;;;;;5071775;28;20051;-31
2023/05/01 06:24:38;;;;;;;9.00;6.35;;;9.70;99.90;;;;;;5054424;28;20055;-30
2023/05/01 06:27:04;;;;;;;10.90;7.13;;;9.90;99.90;;;;;;5071282;28;20036;-31
2023/05/01 06:29:30;;;;;;;11.55;7.25;;;10.00;99.90;;;;;;5069873;28;20033;-30
2023/05/01 06:31:56;;;;;;;11.63;7.82;;;10.10;99.90;;;;;;5071348;28;20039;-31
2023/05/01 06:34:22;;;;;;;8.50;7.50;;;10.30;99.90;;;;;;5071586;28;20083;-31
2023/05/01 06:36:48;;;;;;;12.70;7.82;;;10.40;99.90;;;;;;5068329;28;20076;-30
2023/05/01 06:39:13;;;;;;;10.13;7.55;;;10.40;99.90;;;;;;5067780;28;20049;-31
2023/05/01 06:41:39;;;;;;;11.23;7.20;;;10.50;99.90;;;;;;5071266;28;20075;-31
2023/05/01 06:44:05;;;;;;;10.70;7.75;;;10.60;99.90;;;;;;5071110;28;20040;-31
2023/05/01 06:46:30;;;;;;;10.57;7.50;;;10.80;99.90;;;;;;5071251;28;20062;-31
2023/05/01 06:48:56;;;;;;;10.73;7.50;;;10.80;99.90;;;;;;5054670;28;20457;-30
2023/05/01 06:51:22;;;;;;;12.18;7.40;;;10.90;99.90;;;;;;5069911;28;20028;-31
2023/05/01 06:53:48;;;;;;;9.88;6.93;;;11.10;99.90;;;;;;5068003;28;20049;-31
2023/05/01 06:56:13;;;;;;;9.80;6.65;;;11.30;99.90;;;;;;5070994;28;20087;-31
2023/05/01 06:58:39;;;;;;;8.80;6.18;;;11.40;99.90;;;;;;5070884;28;20107;-31
2023/05/01 07:01:06;;;;;;;9.70;6.32;;;11.60;99.90;;;;;;5068628;28;20068;-31
2023/05/01 07:03:32;;;;;;;9.48;5.90;;;11.60;99.90;;;;;;5059380;28;20070;-31
2023/05/01 07:05:57;;;;;;;9.77;6.22;;;11.80;99.90;;;;;;5053849;28;20055;-31
2023/05/01 07:08:23;;;;;;;8.48;6.15;;;11.80;99.90;;;;;;5070463;28;20085;-30
2023/05/01 07:10:49;;;;;;;9.00;6.22;;;11.80;99.90;;;;;;5050634;28;20115;-31
2023/05/01 07:13:15;;;;;;;12.32;6.85;;;11.80;99.90;;;;;;5069171;28;20040;-31
2023/05/01 07:15:41;;;;;;;8.90;5.63;;;12.10;99.90;;;;;;5070464;28;20040;-31
2023/05/01 07:18:08;;;;;;;10.43;6.70;;;11.90;99.90;;;;;;5070532;28;20036;-31
2023/05/01 07:20:33;;;;;;;7.75;6.32;;;12.10;99.90;;;;;;5070574;28;20147;-31
2023/05/01 07:22:59;;;;;;;8.77;5.85;;;12.20;99.90;;;;;;5071360;28;20107;-31
2023/05/01 07:25:25;;;;;;;11.43;6.63;;;12.10;99.90;;;;;;5070581;28;20036;-31
2023/05/01 07:27:53;;;;;;;10.10;6.47;;;12.20;99.90;;;;;;5053608;28;20043;-31
2023/05/01 07:30:19;;;;;;;8.57;6.07;;;12.50;99.90;;;;;;5070263;28;20098;-31
2023/05/01 07:32:45;;;;;;;9.43;6.85;;;12.50;99.90;;;;;;5070407;28;20044;-31
2023/05/01 07:35:11;;;;;;;7.97;6.38;;;12.60;99.90;;;;;;5070351;28;20051;-31
2023/05/01 07:37:36;;;;;;;9.27;6.50;;;12.50;99.90;;;;;;5070158;28;20037;-31
2023/05/01 07:40:02;;;;;;;10.32;6.70;;;12.70;99.90;;;;;;5070530;28;20056;-31
2023/05/01 07:42:28;;;;;;;8.23;6.43;;;12.80;99.90;;;;;;5070339;28;20043;-31
2023/05/01 07:44:54;;;;;;;8.45;5.82;;;12.60;99.90;;;;;;5070589;28;20033;-30
2023/05/01 07:47:20;;;;;;;11.88;7.22;;;12.60;99.90;;;;;;5060861;28;20577;-31
2023/05/01 07:49:45;;;;;;;8.80;7.25;;;12.90;99.90;;;;;;5070208;28;20082;-31
2023/05/01 07:52:11;;;;;;;11.65;7.47;;;13.00;99.90;;;;;;5071831;28;20378;-31
2023/05/01 07:54:37;;;;;;;8.13;6.78;;;12.80;99.90;;;;;;5070389;28;20041;-31
2023/05/01 07:57:05;;;;;;;8.95;6.65;;;12.80;99.90;;;;;;5065603;28;20390;-31
2023/05/01 07:59:32;;;;;;;11.52;7.05;;;13.10;99.90;;;;;;5071626;28;20055;-31
2023/05/01 08:01:57;;;;;;;9.48;6.65;;;13.30;99.90;;;;;;5064160;28;20487;-31
2023/05/01 08:04:23;;;;;;;11.70;6.85;;;13.40;99.90;;;;;;5065621;28;20513;-31
2023/05/01 08:06:49;;;;;;;8.95;6.82;;;13.60;99.90;;;;;;5069948;28;20070;-31
2023/05/01 08:09:15;;;;;;;9.93;6.82;;;13.60;99.90;;;;;;5069476;28;20043;-31
2023/05/01 08:11:42;;;;;;;11.32;7.35;;;13.80;99.90;;;;;;5069700;28;20389;-32
2023/05/01 08:14:08;;;;;;;9.80;7.03;;;13.90;99.90;;;;;;5069623;28;20046;-31
2023/05/01 08:16:34;;;;;;;9.63;6.75;;;13.90;99.90;;;;;;5069930;28;20036;-31
2023/05/01 08:19:00;;;;;;;9.93;6.00;;;14.20;99.90;;;;;;5070284;28;20039;-31
2023/05/01 08:21:26;;;;;;;11.63;7.10;;;14.50;99.90;;;;;;5070200;28;20040;-31
2023/05/01 08:23:54;;;;;;;10.25;7.07;;;14.40;99.90;;;;;;5069456;28;20040;-31
2023/05/01 08:26:20;;;;;;;9.48;6.90;;;14.30;99.90;;;;;;5070888;28;20072;-31
2023/05/01 08:28:46;;;;;;;8.90;6.57;;;14.50;99.90;;;;;;5073885;28;20056;-31
2023/05/01 08:31:12;;;;;;;9.95;7.00;;;15.00;99.90;;;;;;5074103;28;20029;-32
2023/05/01 08:33:40;;;;;;;10.73;6.72;;;15.10;99.90;;;;;;5073675;28;20043;-31
2023/05/01 08:36:09;;;;;;;8.95;6.18;;;15.30;99.90;;;;;;5073804;28;20028;-31
2023/05/01 08:38:35;;;;;;;7.40;5.57;;;15.80;99.90;;;;;;5073665;28;20044;-31
2023/05/01 08:41:02;;;;;;;8.93;6.18;;;15.90;99.90;;;;;;5072533;28;20032;-31
2023/05/01 08:43:32;;;;;;;10.93;6.57;;;15.80;99.90;;;;;;5073019;28;20093;-31
2023/05/01 08:46:03;;;;;;;8.10;6.13;;;16.00;99.90;;;;;;5073702;28;20029;-31
2023/05/01 08:48:31;;;;;;;8.23;6.30;;;16.10;99.90;;;;;;5062859;28;20394;-31
2023/05/01 08:50:59;;;;;;;6.78;6.07;;;16.30;99.90;;;;;;5070355;28;20048;-31
2023/05/01 08:53:26;;;;;;;9.45;6.47;;;16.20;99.90;;;;;;5073281;28;20063;-32
2023/05/01 08:55:55;;;;;;;8.07;6.30;;;16.50;99.90;;;;;;5072602;28;20097;-32
2023/05/01 08:58:26;;;;;;;8.85;6.68;;;16.20;99.90;;;;;;5073320;28;20040;-31
2023/05/01 09:00:55;;;;;;;9.60;6.32;;;16.30;99.90;;;;;;5072817;28;20058;-32
2023/05/01 09:03:21;;;;;;;9.65;6.38;;;16.40;99.90;;;;;;5073518;28;20497;-32
2023/05/01 09:05:47;;;;;;;8.52;7.07;;;16.70;99.90;;;;;;5073913;28;20501;-32
2023/05/01 09:08:13;;;;;;;8.20;6.40;;;16.70;99.90;;;;;;5072157;28;20115;-32
2023/05/01 09:10:44;;;;;;;6.60;5.35;;;16.90;99.90;;;;;;5073843;28;20032;-32
2023/05/01 09:13:10;;;;;;;7.63;5.65;;;17.20;99.90;;;;;;5072906;28;20072;-32
2023/05/01 09:15:36;;;;;;;8.38;5.63;;;17.90;99.90;;;;;;5072909;28;20125;-31
2023/05/01 09:18:02;;;;;;;5.88;5.03;;;18.50;99.90;;;;;;5070475;28;20036;-32
2023/05/01 09:20:29;;;;;;;6.07;4.90;;;18.40;99.90;;;;;;5072750;28;20044;-32
2023/05/01 09:22:58;;;;;;;7.07;5.53;;;19.00;99.90;;;;;;5072231;28;20043;-32
2023/05/01 09:25:24;;;;;;;5.90;5.18;;;18.70;99.90;;;;;;5073629;28;20040;-32
2023/05/01 09:27:50;;;;;;;8.85;5.35;;;18.70;99.90;;;;;;5072612;28;20043;-32
2023/05/01 09:30:29;;;;;;;7.45;5.47;;;18.70;98.20;;;;;;5064193;28;20029;-32
2023/05/01 09:33:05;;;;;;;7.03;5.43;;;18.60;94.30;;;;;;5041133;28;20455;-32
2023/05/01 09:35:32;;;;;;;6.20;5.60;;;18.80;95.50;;;;;;5069356;28;20436;-32
2023/05/01 09:37:57;;;;;;;8.27;5.22;;;19.40;99.90;;;;;;5072272;28;20067;-32
2023/05/01 09:40:26;;;;;;;7.55;5.57;;;19.70;96.50;;;;;;5068854;28;20503;-32
2023/05/01 09:42:56;;;;;;;6.75;5.40;;;19.90;90.90;;;;;;5065953;28;20043;-32
2023/05/01 09:45:22;;;;;;;5.57;5.07;;;20.10;90.20;;;;;;5055535;28;20433;-33
2023/05/01 09:47:48;;;;;;;5.97;4.90;;;20.40;91.90;;;;;;5072164;28;20078;-33
2023/05/01 09:50:34;;;;;;;8.55;5.07;;;20.20;89.40;;;;;;5072307;28;20060;-32
2023/05/01 09:53:00;;;;;;;9.15;5.20;;;20.10;84.30;;;;;;5072063;28;20120;-32
2023/05/01 09:55:26;;;;;;;5.95;5.30;;;20.10;86.00;;;;;;5072107;28;20047;-32
2023/05/01 09:57:52;;;;;;;10.68;4.60;;;20.10;82.90;;;;;;5071957;28;20033;-32
2023/05/01 10:00:20;;;;;;;8.13;4.75;;;20.20;81.40;;;;;;5072207;28;20406;-32
2023/05/01 10:02:47;;;;;;;8.18;5.05;;;20.40;80.80;;;;;;5071734;28;20559;-32
2023/05/01 10:05:13;;;;;;;6.78;5.07;;;20.80;80.60;;;;;;5071897;28;20564;-32
2023/05/01 10:07:55;;;;;;;6.82;5.20;;;21.00;80.20;;;;;;5052022;28;20119;-33
2023/05/01 10:10:21;;;;;;;6.63;4.90;;;21.30;80.90;;;;;;5072933;28;20115;-32
2023/05/01 10:12:48;;;;;;;7.43;5.53;;;21.70;81.30;;;;;;5071750;28;20071;-33
2023/05/01 10:15:15;;;;;;;9.15;5.55;;;22.10;80.60;;;;;;5071674;28;20040;-32
2023/05/01 10:17:42;;;;;;;6.43;4.72;;;22.40;79.10;;;;;;5069103;28;20453;-32
2023/05/01 10:20:11;;;;;;;8.02;5.15;;;22.90;79.10;;;;;;5060860;28;20109;-32
2023/05/01 10:22:37;;;;;;;7.82;5.57;;;23.00;77.80;;;;;;5071675;28;20044;-32
2023/05/01 10:25:07;;;;;;;7.80;5.07;;;22.90;76.20;;;;;;5071305;28;20482;-32
2023/05/01 10:27:35;;;;;;;8.30;4.60;;;22.60;75.80;;;;;;5071445;28;20040;-32
2023/05/01 10:30:06;;;;;;;5.40;4.65;;;22.70;76.50;;;;;;5071402;28;20098;-33
2023/05/01 10:32:32;;;;;;;5.30;4.60;;;23.10;76.30;;;;;;5072694;28;20040;-33
2023/05/01 10:35:10;;;;;;;6.68;4.25;;;23.30;75.90;;;;;;5070780;28;20043;-33
2023/05/01 10:37:57;;;;;;;7.55;5.13;;;23.30;74.40;;;;;;5071125;28;20072;-32
2023/05/01 10:40:38;;;;;;;8.40;4.90;;;23.90;74.30;;;;;;5070076;28;20036;-32
2023/05/01 10:43:28;;;;;;;6.03;4.30;;;24.00;73.10;;;;;;5058878;28;20065;-32
2023/05/01 10:46:07;;;;;;;6.65;4.88;;;23.90;73.40;;;;;;5071327;28;20209;-31
2023/05/01 10:48:39;;;;;;;6.72;4.22;;;24.10;71.20;;;;;;5069132;28;20111;-32
2023/05/01 10:51:09;;;;;;;5.67;4.50;;;24.00;72.70;;;;;;5070767;28;20043;-31
2023/05/01 10:53:35;;;;;;;4.43;3.85;;;24.30;72.90;;;;;;5059750;28;20041;-32
2023/05/01 10:56:04;;;;;;;6.00;4.38;;;24.70;72.70;;;;;;5065191;28;20037;-31
2023/05/01 10:58:37;;;;;;;7.45;4.35;;;24.50;71.70;;;;;;5069466;28;20048;-31
2023/05/01 11:01:28;;;;;;;6.22;4.28;;;25.40;71.50;;;;;;5071012;28;20044;-31
2023/05/01 11:03:56;;;;;;;6.25;4.00;;;25.30;70.60;;;;;;5064865;28;20304;-32
2023/05/01 11:06:22;;;;;;;5.45;3.67;;;25.70;72.00;;;;;;5070339;28;20040;-32
2023/05/01 11:08:48;;;;;;;5.65;3.50;;;25.90;71.70;;;;;;5070742;28;20063;-32
2023/05/01 11:11:21;;;;;;;6.82;4.20;;;26.10;72.20;;;;;;5062146;28;20037;-32
2023/05/01 11:13:57;;;;;;;5.78;3.80;;;25.90;70.20;;;;;;5063403;28;20318;-32
2023/05/01 11:16:38;;;;;;;5.78;3.90;;;26.30;68.40;;;;;;5068017;28;20064;-32
2023/05/01 11:19:04;;;;;;;6.88;4.15;;;25.80;68.10;;;;;;5078804;28;20094;-31
2023/05/01 11:21:38;;;;;;;4.30;3.38;;;26.10;69.40;;;;;;5070291;28;20024;-31
2023/05/01 11:24:10;;;;;;;4.82;3.67;;;26.50;69.70;;;;;;5071253;28;20126;-32
2023/05/01 11:26:41;;;;;;;4.28;3.38;;;26.50;67.30;;;;;;5069367;28;20037;-34
2023/05/01 11:29:09;;;;;;;5.22;3.10;;;26.30;66.50;;;;;;5070445;28;20094;-34
2023/05/01 11:31:36;;;;;;;4.80;2.90;;;25.60;68.70;;;;;;5070173;28;20044;-34
2023/05/01 11:34:05;;;;;;;4.82;3.15;;;25.90;68.50;;;;;;5069677;28;20510;-34
2023/05/01 11:36:50;;;;;;;3.78;2.65;;;26.10;66.60;;;;;;5068893;28;20472;-34
2023/05/01 11:39:17;;;;;;;3.03;2.15;;;25.70;67.00;;;;;;5068503;28;20451;-34
2023/05/01 11:41:43;;;;;;;3.25;2.17;;;26.20;68.00;;;;;;5070468;28;20037;-34
2023/05/01 11:44:11;;;;;;;3.72;2.20;;;26.60;67.40;;;;;;5069723;28;20109;-34
2023/05/01 11:46:37;;;;;;;5.80;2.20;;;26.30;65.90;;;;;;5066553;28;20482;-34
2023/05/01 11:49:04;;;;;;;3.55;2.28;;;26.70;66.20;;;;;;5070228;28;20043;-33
2023/05/01 11:51:30;;;;;;;3.50;2.08;;;26.80;65.20;;;;;;5067907;28;20075;-34
2023/05/01 11:54:08;;;;;;;3.92;2.63;;;26.80;64.50;;;;;;5066043;28;20482;-34
2023/05/01 11:56:35;;;;;;;4.10;2.53;;;27.10;63.80;;;;;;5069908;28;20041;-34
2023/05/01 11:59:15;;;;;;;6.05;2.47;;;26.80;65.00;;;;;;5069934;28;20040;-34
2023/05/01 12:01:45;;;;;;;3.88;2.63;;;26.20;64.20;;;;;;5070500;28;20044;-34
2023/05/01 12:04:12;;;;;;;3.17;2.30;;;26.20;65.10;;;;;;5068232;28;20098;-34
2023/05/01 12:06:45;;;;;;;4.28;2.35;;;25.90;63.90;;;;;;5090355;28;20083;-34
2023/05/01 12:09:28;;;;;;;4.47;2.20;;;25.90;64.70;;;;;;5068876;28;20043;-34
2023/05/01 12:11:54;;;;;;;5.27;2.43;;;25.50;65.00;;;;;;5069609;28;20028;-34
2023/05/01 12:14:20;;;;;;;3.97;2.42;;;25.80;65.80;;;;;;5072870;28;20489;-34
2023/05/01 12:16:47;;;;;;;2.25;2.03;;;25.20;65.90;;;;;;5070038;28;20040;-34
2023/05/01 12:19:18;;;;;;;2.63;1.90;;;25.60;66.40;;;;;;5073690;28;20774;-33
2023/05/01 12:21:43;;;;;;;2.20;1.55;;;25.30;66.20;;;;;;5074740;28;20035;-33
2023/05/01 12:24:15;;;;;;;4.13;1.88;;;25.50;66.20;;;;;;5074902;28;20403;-33
2023/05/01 12:26:41;;;;;;;2.03;1.75;;;25.90;65.50;;;;;;5081710;28;20457;-33
2023/05/01 12:29:11;;;;;;;2.78;1.42;;;25.80;66.00;;;;;;5076172;28;20119;-33
2023/05/01 12:31:48;;;;;;;3.92;1.60;;;26.00;66.30;;;;;;5074094;28;20068;-33
2023/05/01 12:34:14;;;;;;;2.47;1.40;;;26.10;64.70;;;;;;5059367;28;20083;-33
2023/05/01 12:36:40;;;;;;;3.53;1.40;;;25.80;64.10;;;;;;5073193;28;20068;-33
2023/05/01 12:39:08;;;;;;;2.03;1.50;;;26.30;65.50;;;;;;5072166;28;20555;-33
2023/05/01 12:41:44;;;;;;;2.88;1.42;;;26.80;65.90;;;;;;5068717;28;20036;-33
2023/05/01 12:44:24;;;;;;;3.45;1.70;;;26.80;65.60;;;;;;5059798;28;20040;-33
2023/05/01 12:46:54;;;;;;;1.85;1.42;;;27.30;65.30;;;;;;5072731;28;20035;-33
2023/05/01 12:49:21;;;;;;;2.13;1.38;;;27.70;63.70;;;;;;5071884;28;20672;-33
2023/05/01 12:51:48;;;;;;;2.63;1.40;;;28.00;63.50;;;;;;5074509;28;20422;-33
2023/05/01 12:54:27;;;;;;;3.47;1.50;;;28.10;63.20;;;;;;5073215;28;20040;-34
2023/05/01 12:57:09;;;;;;;1.77;1.30;;;28.00;61.60;;;;;;5072895;28;20119;-33